createdAt,value
2022-12-05T00:01:00.412Z,100022.13
2022-12-05T00:03:26.767Z,100003.03
2022-12-05T00:05:53.247Z,100016.03
2022-12-05T00:08:19.655Z,100006.38
2022-12-05T00:10:45.990Z,100002.91
2022-12-05T00:13:12.312Z,100001.97
2022-12-05T00:15:40.210Z,100005.47
2022-12-05T00:18:07.471Z,100014.09
2022-12-05T00:20:34.293Z,100012.31
2022-12-05T00:23:01.090Z,100000.06
2022-12-05T00:25:27.865Z,99997.41
2022-12-05T00:27:54.175Z,99995.66
2022-12-05T00:30:20.633Z,100003.44
2022-12-05T00:32:46.948Z,99993.91
2022-12-05T00:35:13.301Z,99994.78
2022-12-05T00:37:39.638Z,99998.16
2022-12-05T00:40:06.706Z,99994.72
2022-12-05T00:42:33.045Z,99992.97
2022-12-05T00:44:59.394Z,99998.16
2022-12-05T00:47:25.743Z,99988.66
2022-12-05T00:49:52.154Z,99983.38
2022-12-05T00:52:18.521Z,99997.25
2022-12-05T00:54:44.894Z,99990.31
2022-12-05T00:57:11.250Z,99991.13
2022-12-05T00:59:37.566Z,99990.22
2022-12-05T01:02:03.943Z,99986.72
2022-12-05T01:04:30.218Z,99986.66
2022-12-05T01:06:58.618Z,99990.13
2022-12-05T01:09:25.341Z,99988.31
2022-12-05T01:11:52.936Z,99990.91
2022-12-05T01:14:22.566Z,99985.69
2022-12-05T01:16:50.761Z,99989.13
2022-12-05T01:19:22.129Z,99998.63
2022-12-05T01:21:48.866Z,99988.13
2022-12-05T01:24:16.519Z,99992.41
2022-12-05T01:26:43.618Z,99991.56
2022-12-05T01:29:11.698Z,99990.66
2022-12-05T01:31:38.396Z,99994.13
2022-12-05T01:34:07.231Z,99997.56
2022-12-05T01:36:33.783Z,99996.69
2022-12-05T01:39:00.411Z,99999.31
2022-12-05T01:41:32.227Z,100002.78
2022-12-05T01:44:03.139Z,99994.94
2022-12-05T01:46:38.184Z,99998.41
2022-12-05T01:49:16.770Z,99993.25
2022-12-05T01:51:46.924Z,99995.78
2022-12-05T01:54:14.670Z,99997.44
2022-12-05T01:56:44.385Z,99993.09
2022-12-05T01:59:12.737Z,99996.53
2022-12-05T02:01:39.991Z,99997.41
2022-12-05T02:04:07.035Z,99999.91
2022-12-05T02:06:35.714Z,99999.13
2022-12-05T02:09:02.373Z,100002.50
2022-12-05T02:11:30.942Z,99998.16
2022-12-05T02:14:07.523Z,100001.72
2022-12-05T02:16:48.304Z,100000.81
2022-12-05T02:19:41.044Z,99999.91
2022-12-05T02:22:45.215Z,100004.25
2022-12-05T02:25:19.855Z,99998.88
2022-12-05T02:28:04.580Z,99997.13
2022-12-05T02:30:40.043Z,99997.16
2022-12-05T02:33:24.198Z,99998.03
2022-12-05T02:36:08.571Z,99993.69
2022-12-05T02:38:46.384Z,99992.81
2022-12-05T02:41:31.369Z,100005.00
2022-12-05T02:44:23.365Z,99998.91
2022-12-05T02:46:52.343Z,99997.91
2022-12-05T02:49:25.125Z,99996.22
2022-12-05T02:51:56.900Z,99998.81
2022-12-05T02:54:27.659Z,100002.25
2022-12-05T02:56:56.233Z,99996.97
2022-12-05T02:59:23.664Z,100003.88
2022-12-05T03:01:51.118Z,99995.97
2022-12-05T03:04:20.792Z,99995.09
2022-12-05T03:06:53.879Z,99989.00
2022-12-05T03:09:25.638Z,99990.63
2022-12-05T03:12:04.944Z,99982.75
2022-12-05T03:14:39.934Z,99977.53
2022-12-05T03:17:11.928Z,99977.53
2022-12-05T03:19:53.112Z,99985.41
2022-12-05T03:22:27.798Z,99978.44
2022-12-05T03:24:54.782Z,99976.66
2022-12-05T03:27:25.285Z,99981.09
2022-12-05T03:29:56.064Z,99988.09
2022-12-05T03:32:38.107Z,99984.69
2022-12-05T03:35:21.253Z,99981.19
2022-12-05T03:37:51.905Z,99990.72
2022-12-05T03:40:25.982Z,99981.13
2022-12-05T03:43:13.818Z,99990.72
2022-12-05T03:46:03.032Z,99992.53
2022-12-05T03:48:37.782Z,99995.97
2022-12-05T03:51:07.991Z,99989.81
2022-12-05T03:53:42.010Z,99987.22
2022-12-05T03:56:17.715Z,99991.56
2022-12-05T03:58:51.208Z,99988.06
2022-12-05T04:01:21.335Z,99989.75
2022-12-05T04:03:53.899Z,99991.47
2022-12-05T04:06:31.831Z,99989.72
2022-12-05T04:09:04.323Z,99991.44
2022-12-05T04:11:35.431Z,99995.75
2022-12-05T04:14:08.951Z,99992.28
2022-12-05T04:17:06.340Z,99988.84
2022-12-05T04:20:14.370Z,99987.91
2022-12-05T04:22:42.223Z,99988.66
2022-12-05T04:25:29.472Z,99989.56
2022-12-05T04:28:19.614Z,99987.00
2022-12-05T04:31:05.330Z,99993.13
2022-12-05T04:33:56.535Z,99992.22
2022-12-05T04:36:32.881Z,99988.84
2022-12-05T04:39:10.704Z,99989.66
2022-12-05T04:41:46.999Z,99990.53
2022-12-05T04:44:17.309Z,99989.66
2022-12-05T04:46:45.862Z,99990.53
2022-12-05T04:49:17.493Z,99994.94
2022-12-05T04:51:45.957Z,99993.13
2022-12-05T04:54:23.653Z,99997.53
2022-12-05T04:56:59.578Z,99990.53
2022-12-05T04:59:27.470Z,99994.84
2022-12-05T05:01:57.976Z,99992.28
2022-12-05T05:04:34.625Z,99994.06
2022-12-05T05:07:06.850Z,99988.84
2022-12-05T05:09:33.506Z,99993.13
2022-12-05T05:11:59.862Z,99994.88
2022-12-05T05:14:26.231Z,99993.13
2022-12-05T05:16:52.618Z,99999.28
2022-12-05T05:19:18.906Z,99992.28
2022-12-05T05:21:45.491Z,99990.56
2022-12-05T05:24:12.279Z,99993.13
2022-12-05T05:26:40.795Z,100000.97
2022-12-05T05:29:08.054Z,99989.66
2022-12-05T05:31:35.149Z,99993.13
2022-12-05T05:34:07.610Z,99999.19
2022-12-05T05:36:36.036Z,99993.97
2022-12-05T05:39:04.580Z,99998.38
2022-12-05T05:41:33.364Z,99996.66
2022-12-05T05:44:00.719Z,100001.81
2022-12-05T05:46:30.290Z,99996.59
2022-12-05T05:48:57.563Z,100001.81
2022-12-05T05:51:29.150Z,99999.19
2022-12-05T05:53:56.764Z,100000.06
2022-12-05T05:56:23.263Z,99997.44
2022-12-05T05:58:55.984Z,100001.00
2022-12-05T06:01:23.100Z,100006.16
2022-12-05T06:03:50.684Z,100007.91
2022-12-05T06:06:19.314Z,100007.91
2022-12-05T06:08:46.801Z,100000.94
2022-12-05T06:11:23.164Z,100003.53
2022-12-05T06:13:52.486Z,100011.28
2022-12-05T06:16:21.140Z,100000.84
2022-12-05T06:18:49.719Z,100009.56
2022-12-05T06:21:16.839Z,100007.81
2022-12-05T06:23:43.535Z,100006.94
2022-12-05T06:26:13.424Z,99998.25
2022-12-05T06:28:40.054Z,100001.72
2022-12-05T06:31:10.991Z,100010.41
2022-12-05T06:33:37.605Z,100007.81
2022-12-05T06:36:10.114Z,100005.25
2022-12-05T06:38:41.605Z,100009.50
2022-12-05T06:41:12.075Z,100005.19
2022-12-05T06:43:38.574Z,100003.38
2022-12-05T06:46:10.210Z,100007.81
2022-12-05T06:48:36.795Z,100008.59
2022-12-05T06:51:03.566Z,100006.84
2022-12-05T06:53:30.133Z,100007.69
2022-12-05T06:55:58.187Z,100013.72
2022-12-05T06:58:25.747Z,100004.19
2022-12-05T07:01:11.603Z,100006.81
2022-12-05T07:03:38.377Z,100006.78
2022-12-05T07:06:06.721Z,100009.38
2022-12-05T07:08:34.280Z,100017.22
2022-12-05T07:11:02.653Z,100012.00
2022-12-05T07:13:31.864Z,100018.91
2022-12-05T07:22:55.124Z,100028.41
2022-12-05T07:25:22.868Z,100024.78
2022-12-05T07:27:57.572Z,100033.56
2022-12-05T07:30:23.917Z,100036.06
2022-12-05T07:33:03.784Z,100040.50
2022-12-05T07:35:30.550Z,100029.06
2022-12-05T07:37:58.709Z,100035.16
2022-12-05T07:40:25.109Z,100035.06
2022-12-05T07:42:58.565Z,100036.03
2022-12-05T07:45:24.909Z,100035.03
2022-12-05T07:47:51.346Z,100031.50
2022-12-05T07:50:17.954Z,100031.50
2022-12-05T07:52:44.354Z,100034.97
2022-12-05T07:55:21.035Z,100040.25
2022-12-05T07:57:47.407Z,100033.19
2022-12-05T08:00:28.026Z,100030.66
2022-12-05T08:02:54.451Z,100027.91
2022-12-05T08:05:20.999Z,100032.28
2022-12-05T08:07:47.443Z,100032.25
2022-12-05T08:10:23.492Z,100036.63
2022-12-05T08:12:49.937Z,100030.41
2022-12-05T08:15:23.736Z,100029.63
2022-12-05T08:17:50.099Z,100026.91
2022-12-05T08:20:18.661Z,100035.59
2022-12-05T08:22:45.024Z,100037.25
2022-12-05T08:25:19.684Z,100038.16
2022-12-05T08:27:46.116Z,100036.28
2022-12-05T08:30:33.536Z,100038.94
2022-12-05T08:32:59.979Z,100032.72
2022-12-05T08:35:26.443Z,100042.28
2022-12-05T08:37:53.014Z,100050.13
2022-12-05T08:40:26.764Z,100047.56
2022-12-05T08:42:53.135Z,100051.84
2022-12-05T08:45:20.576Z,100055.34
2022-12-05T08:47:46.933Z,100057.09
2022-12-05T08:50:26.334Z,100059.84
2022-12-05T08:52:52.684Z,100057.06
2022-12-05T08:55:24.312Z,100060.59
2022-12-05T08:57:50.664Z,100064.03
2022-12-05T09:00:18.565Z,100063.06
2022-12-05T09:02:45.022Z,100067.38
2022-12-05T09:05:27.530Z,100066.50
2022-12-05T09:07:55.711Z,100066.47
2022-12-05T09:10:31.950Z,100067.38
2022-12-05T09:12:58.317Z,100070.78
2022-12-05T09:15:43.000Z,100069.13
2022-12-05T09:18:09.414Z,100065.50
2022-12-05T09:20:39.853Z,100065.50
2022-12-05T09:23:06.244Z,100070.69
2022-12-05T09:25:40.950Z,100070.72
2022-12-05T09:28:07.387Z,100077.56
2022-12-05T09:31:03.746Z,100068.00
2022-12-05T09:33:32.271Z,100079.19
2022-12-05T09:36:09.841Z,100080.06
2022-12-05T09:38:37.594Z,100087.81
2022-12-05T09:41:44.189Z,100082.66
2022-12-05T09:44:18.403Z,100085.25
2022-12-05T09:47:00.587Z,100084.41
2022-12-05T09:49:29.876Z,100086.00
2022-12-05T09:51:58.094Z,100087.75
2022-12-05T09:54:28.369Z,100086.09
2022-12-05T09:56:55.106Z,100079.09
2022-12-05T09:59:21.753Z,100089.63
2022-12-05T10:07:27.326Z,100080.97
2022-12-05T10:10:05.866Z,100082.78
2022-12-05T10:12:35.267Z,100086.34
2022-12-05T10:15:10.324Z,100077.66
2022-12-05T10:17:44.109Z,100085.59
2022-12-05T10:20:22.485Z,100080.44
2022-12-05T10:22:58.471Z,100076.13
2022-12-05T10:25:27.353Z,100077.84
2022-12-05T10:27:58.283Z,100073.53
2022-12-05T10:30:29.597Z,100082.19
2022-12-05T10:33:09.535Z,100070.81
2022-12-05T10:35:38.544Z,100073.38
2022-12-05T10:38:09.815Z,100075.94
2022-12-05T10:40:40.249Z,100077.66
2022-12-05T10:43:08.811Z,100081.06
2022-12-05T10:45:48.530Z,100082.78
2022-12-05T10:48:17.674Z,100074.81
2022-12-05T10:50:48.444Z,100076.59
2022-12-05T10:53:40.254Z,100068.88
2022-12-05T10:56:41.560Z,100077.50
2022-12-05T10:59:10.817Z,100062.59
2022-12-05T11:01:43.264Z,100071.25
2022-12-05T11:04:21.241Z,100061.75
2022-12-05T11:06:52.038Z,100066.03
2022-12-05T11:09:21.706Z,100068.59
2022-12-05T11:12:21.329Z,100064.34
2022-12-05T11:15:04.903Z,100056.44
2022-12-05T11:17:36.337Z,100050.22
2022-12-05T11:20:22.697Z,100058.16
2022-12-05T11:22:51.402Z,100057.09
2022-12-05T11:25:31.560Z,100051.97
2022-12-05T11:28:01.624Z,100050.94
2022-12-05T11:30:29.346Z,100054.38
2022-12-05T11:33:32.876Z,100052.66
2022-12-05T11:36:19.567Z,100053.41
2022-12-05T11:38:46.724Z,100053.28
2022-12-05T11:41:35.047Z,100051.63
2022-12-05T11:44:27.094Z,100045.53
2022-12-05T11:47:22.771Z,100048.94
2022-12-05T11:50:19.960Z,100038.47
2022-12-05T11:53:02.487Z,100041.91
2022-12-05T11:55:41.156Z,100045.41
2022-12-05T11:58:46.817Z,100038.47
2022-12-05T12:04:22.787Z,100037.47
2022-12-05T12:07:04.499Z,100036.69
2022-12-05T12:10:09.786Z,100033.16
2022-12-05T12:13:04.715Z,100029.84
2022-12-05T12:15:52.172Z,100038.56
2022-12-05T12:18:42.373Z,100036.88
2022-12-05T12:21:56.472Z,100036.91
2022-12-05T12:24:38.020Z,100040.34
2022-12-05T12:27:31.952Z,100041.31
2022-12-05T12:30:07.937Z,100032.50
2022-12-05T12:32:59.946Z,100035.25
2022-12-05T12:35:47.477Z,100032.59
2022-12-05T12:38:33.681Z,100033.47
2022-12-05T12:41:15.641Z,100034.34
2022-12-05T12:44:29.269Z,100036.97
2022-12-05T12:47:01.202Z,100034.31
2022-12-05T12:49:48.851Z,100028.28
2022-12-05T12:52:21.255Z,100029.03
2022-12-05T12:55:04.556Z,100031.66
2022-12-05T12:57:53.615Z,100035.97
2022-12-05T13:00:44.183Z,100027.31
2022-12-05T13:03:17.307Z,100027.28
2022-12-05T13:05:49.994Z,100026.47
2022-12-05T13:08:26.471Z,100025.56
2022-12-05T13:10:53.959Z,100021.09
2022-12-05T13:13:28.474Z,100016.81
2022-12-05T13:15:59.576Z,100020.28
2022-12-05T13:18:27.263Z,100015.00
2022-12-05T13:20:56.830Z,100019.38
2022-12-05T13:23:27.066Z,100018.53
2022-12-05T13:25:55.388Z,100016.78
2022-12-05T13:28:35.699Z,100012.56
2022-12-05T13:31:04.647Z,100016.78
2022-12-05T13:33:41.816Z,100022.88
2022-12-05T13:36:31.266Z,100019.38
2022-12-05T13:39:22.468Z,100026.38
2022-12-05T13:42:11.156Z,100017.66
2022-12-05T13:44:46.419Z,100031.59
2022-12-05T13:47:51.323Z,100020.44
2022-12-05T13:50:41.227Z,100020.50
2022-12-05T13:53:23.939Z,100032.69
2022-12-05T13:56:18.606Z,100030.09
2022-12-05T13:58:56.333Z,100024.09
2022-12-05T14:01:26.927Z,100031.00
2022-12-05T14:04:00.258Z,100028.53
2022-12-05T14:06:38.708Z,100028.66
2022-12-05T14:09:28.066Z,100023.50
2022-12-05T14:12:29.610Z,100021.84
2022-12-05T14:14:55.956Z,100024.31
2022-12-05T14:17:44.998Z,100019.25
2022-12-05T14:20:29.782Z,100027.09
2022-12-05T14:23:15.693Z,100026.31
2022-12-05T14:25:57.935Z,100028.00
2022-12-05T14:28:38.494Z,100024.59
2022-12-05T14:31:42.432Z,100023.78
2022-12-05T14:34:23.767Z,100022.88
2022-12-05T14:37:02.866Z,100029.06
2022-12-05T14:39:47.657Z,100028.28
2022-12-05T14:42:44.058Z,100026.66
2022-12-05T14:45:35.982Z,100027.63
2022-12-05T14:48:47.759Z,100028.50
2022-12-05T14:51:32.528Z,100029.41
2022-12-05T14:54:13.295Z,100034.69
2022-12-05T14:56:42.886Z,100035.56
2022-12-05T14:59:32.579Z,100033.94
2022-12-05T15:02:01.661Z,100034.72
2022-12-05T15:04:43.427Z,100033.94
2022-12-05T15:07:16.272Z,100031.31
2022-12-05T15:09:42.569Z,100033.03
2022-12-05T15:12:34.592Z,100031.41
2022-12-05T15:15:22.563Z,100031.50
2022-12-05T15:18:02.181Z,100041.94
2022-12-05T15:20:46.469Z,100041.16
2022-12-05T15:23:45.369Z,100036.88
2022-12-05T15:26:47.671Z,100041.25
2022-12-05T15:29:20.750Z,100047.38
2022-12-05T15:31:48.361Z,100046.47
2022-12-05T15:34:45.337Z,100047.50
2022-12-05T15:37:19.656Z,100054.50
2022-12-05T15:40:09.351Z,100047.72
2022-12-05T15:42:38.102Z,100053.75
2022-12-05T15:45:16.148Z,100047.75
2022-12-05T15:47:51.057Z,100049.56
2022-12-05T15:50:30.593Z,100046.09
2022-12-05T15:52:59.305Z,100040.84
2022-12-05T15:55:35.330Z,100048.72
2022-12-05T15:58:15.193Z,100049.66
2022-12-05T16:00:48.926Z,100050.56
2022-12-05T16:03:52.270Z,100049.69
2022-12-05T16:06:31.051Z,100046.19
2022-12-05T16:08:59.586Z,100047.84
2022-12-05T16:11:26.170Z,100047.00
2022-12-05T16:13:58.653Z,100056.59
2022-12-05T16:16:32.808Z,100061.75
2022-12-05T16:19:05.075Z,100051.31
2022-12-05T16:21:38.571Z,100055.59
2022-12-05T16:24:17.997Z,100058.25
2022-12-05T16:26:57.870Z,100055.53
2022-12-05T16:29:32.113Z,100056.41
2022-12-05T16:32:04.039Z,100059.81
2022-12-05T16:34:33.567Z,100054.59
2022-12-05T16:37:00.352Z,100058.81
2022-12-05T16:39:30.617Z,100055.34
2022-12-05T16:41:57.095Z,100062.31
2022-12-05T16:44:47.462Z,100046.69
2022-12-05T16:47:41.649Z,100054.50
2022-12-05T16:50:22.907Z,100056.22
2022-12-05T16:52:49.852Z,100054.34
2022-12-05T16:55:16.221Z,100061.34
2022-12-05T16:57:42.678Z,100061.38
2022-12-05T17:00:15.461Z,100060.63
2022-12-05T17:02:41.961Z,100061.44
2022-12-05T17:05:14.937Z,100061.50
2022-12-05T17:07:41.226Z,100067.53
2022-12-05T17:10:08.119Z,100069.13
2022-12-05T17:12:34.590Z,100068.28
2022-12-05T17:15:01.386Z,100071.78
2022-12-05T17:17:27.945Z,100069.19
2022-12-05T17:19:54.473Z,100066.63
2022-12-05T17:22:20.967Z,100066.63
2022-12-05T17:24:47.265Z,100070.09
2022-12-05T17:27:13.734Z,100069.19
2022-12-05T17:29:40.067Z,100070.00
2022-12-05T17:32:06.407Z,100069.19
2022-12-05T17:34:32.722Z,100064.78
2022-12-05T17:37:00.125Z,100070.09
2022-12-05T17:39:28.570Z,100062.25
2022-12-05T17:41:55.546Z,100067.47
2022-12-05T17:44:22.119Z,100068.34
2022-12-05T17:46:48.578Z,100064.91
2022-12-05T17:49:17.766Z,100064.91
2022-12-05T17:52:13.449Z,100062.25
2022-12-05T17:54:31.008Z,100065.69
2022-12-05T17:56:57.315Z,100067.47
2022-12-05T17:59:23.620Z,100075.31
2022-12-05T18:04:27.908Z,100082.22
2022-12-05T18:06:54.371Z,100080.53
2022-12-05T18:09:21.079Z,100081.31
2022-12-05T18:11:47.565Z,100083.06
2022-12-05T18:14:14.056Z,100084.84
2022-12-05T18:16:40.610Z,100077.84
2022-12-05T18:19:08.633Z,100081.31
2022-12-05T18:21:52.632Z,100077.84
2022-12-05T18:24:29.374Z,100087.41
2022-12-05T18:26:56.181Z,100082.94
2022-12-05T18:29:23.583Z,100092.47
2022-12-05T18:31:50.273Z,100090.72
2022-12-05T18:34:17.013Z,100091.56
2022-12-05T18:36:43.649Z,100094.19
2022-12-05T18:39:22.565Z,100097.69
2022-12-05T18:41:49.076Z,100101.97
2022-12-05T18:44:15.871Z,100101.13
2022-12-05T18:46:42.269Z,100100.22
2022-12-05T18:49:11.442Z,100105.44
2022-12-05T18:51:38.282Z,100115.00
2022-12-05T18:54:05.019Z,100113.25
2022-12-05T18:56:38.074Z,100112.34
2022-12-05T18:59:07.617Z,100112.34
2022-12-05T19:01:37.352Z,100107.97
2022-12-05T19:04:05.448Z,100103.59
2022-12-05T19:06:36.092Z,100107.09
2022-12-05T19:09:06.744Z,100107.06
2022-12-05T19:11:33.868Z,100107.06
2022-12-05T19:14:02.871Z,100111.41
2022-12-05T19:16:31.386Z,100114.91
2022-12-05T19:19:00.734Z,100113.25
2022-12-05T19:21:29.330Z,100110.63
2022-12-05T19:23:56.194Z,100114.19
2022-12-05T19:26:23.407Z,100116.84
2022-12-05T19:28:50.163Z,100111.72
2022-12-05T19:31:19.781Z,100115.28
2022-12-05T19:33:59.699Z,100118.78
2022-12-05T19:36:32.246Z,100125.81
2022-12-05T19:38:59.715Z,100125.81
2022-12-05T19:41:29.461Z,100123.22
2022-12-05T19:43:59.807Z,100124.19
2022-12-05T19:46:29.550Z,100123.31
2022-12-05T19:48:58.133Z,100125.03
2022-12-05T19:51:24.756Z,100130.28
2022-12-05T19:53:52.039Z,100126.78
2022-12-05T19:56:26.535Z,100130.28
2022-12-05T19:58:53.749Z,100128.53
2022-12-05T20:01:40.391Z,100128.59
2022-12-05T20:04:13.626Z,100131.13
2022-12-05T20:06:43.348Z,100131.13
2022-12-05T20:09:11.334Z,100128.53
2022-12-05T20:11:43.744Z,100132.88
2022-12-05T20:14:11.668Z,100124.13
2022-12-05T20:16:45.098Z,100127.69
2022-12-05T20:19:11.967Z,100128.53
2022-12-05T20:21:44.610Z,100130.28
2022-12-05T20:24:12.041Z,100132.91
2022-12-05T20:26:41.092Z,100131.22
2022-12-05T20:29:07.946Z,100131.25
2022-12-05T20:31:36.580Z,100136.53
2022-12-05T20:34:04.482Z,100136.53
2022-12-05T20:36:33.253Z,100138.28
2022-12-05T20:39:17.287Z,100135.72
2022-12-05T20:41:44.544Z,100128.72
2022-12-05T20:44:13.933Z,100131.38
2022-12-05T20:46:41.406Z,100132.25
2022-12-05T20:49:08.457Z,100126.16
2022-12-05T20:51:35.264Z,100129.69
2022-12-05T20:54:03.702Z,100134.06
2022-12-05T20:56:32.312Z,100128.84
2022-12-05T20:59:01.018Z,100134.91
2022-12-05T21:01:29.546Z,100138.41
2022-12-05T21:03:56.824Z,100137.50
2022-12-05T21:06:26.642Z,100138.41
2022-12-05T21:09:00.068Z,100136.72
2022-12-05T21:11:28.063Z,100131.50
2022-12-05T21:13:56.213Z,100129.78
2022-12-05T21:16:23.295Z,100122.84
2022-12-05T21:18:52.592Z,100117.66
2022-12-05T21:21:21.449Z,100124.66
2022-12-05T21:26:44.501Z,100124.66
2022-12-05T21:29:11.035Z,100130.72
2022-12-05T21:31:40.743Z,100124.66
2022-12-05T21:34:14.045Z,100121.13
2022-12-05T21:36:41.118Z,100128.00
2022-12-05T21:39:07.921Z,100122.78
2022-12-05T21:41:35.032Z,100117.56
2022-12-05T21:44:01.574Z,100122.75
2022-12-05T21:46:28.355Z,100121.00
2022-12-05T21:48:55.302Z,100119.25
2022-12-05T21:51:22.886Z,100119.25
2022-12-05T21:53:50.049Z,100117.50
2022-12-05T21:56:19.421Z,100120.09
2022-12-05T21:58:46.687Z,100120.09
2022-12-05T22:01:18.485Z,100125.31
2022-12-05T22:03:46.718Z,100122.72
2022-12-05T22:06:16.754Z,100117.50
2022-12-05T22:08:44.323Z,100124.47
2022-12-05T22:11:16.226Z,100134.06
2022-12-05T22:13:44.366Z,100131.50
2022-12-05T22:16:12.603Z,100127.09
2022-12-05T22:18:39.611Z,100113.25
2022-12-05T22:21:18.094Z,100128.16
2022-12-05T22:23:45.320Z,100121.13
2022-12-05T22:26:25.639Z,100116.84
2022-12-05T22:28:56.192Z,100113.34
2022-12-05T22:31:24.586Z,100115.03
2022-12-05T22:33:51.615Z,100111.59
2022-12-05T22:36:19.964Z,100112.50
2022-12-05T22:38:47.953Z,100107.22
2022-12-05T22:41:17.809Z,100115.13
2022-12-05T22:43:46.140Z,100118.56
2022-12-05T22:46:21.712Z,100112.53
2022-12-05T22:48:50.099Z,100109.81
2022-12-05T22:51:18.656Z,100118.53
2022-12-05T22:53:45.813Z,100110.69
2022-12-05T22:56:14.793Z,100109.81
2022-12-05T22:58:42.450Z,100107.19
2022-12-05T23:01:10.184Z,100102.81
2022-12-05T23:03:36.898Z,100102.81
2022-12-05T23:06:11.191Z,100107.19
2022-12-05T23:08:38.864Z,100101.06
2022-12-05T23:11:06.704Z,100103.69
2022-12-05T23:13:34.476Z,100103.69
2022-12-05T23:16:12.389Z,100102.06
2022-12-05T23:18:55.730Z,100105.44
2022-12-05T23:21:23.955Z,100099.34
2022-12-05T23:23:52.850Z,100097.59
2022-12-05T23:26:21.387Z,100095.78
2022-12-05T23:28:47.962Z,100096.66
2022-12-05T23:31:14.885Z,100099.25
2022-12-05T23:33:41.575Z,100097.44
2022-12-05T23:36:08.826Z,100093.09
2022-12-05T23:38:36.618Z,100094.78
2022-12-05T23:41:19.008Z,100089.63
2022-12-05T23:43:46.595Z,100083.41
2022-12-05T23:46:15.127Z,100085.13
2022-12-05T23:48:42.472Z,100085.09
2022-12-05T23:51:10.446Z,100085.09
2022-12-05T23:53:39.257Z,100093.75
2022-12-05T23:56:05.928Z,100090.31
2022-12-05T23:58:33.037Z,100096.38
